Time;durP1;ratioP1;P1;durP2;ratioP2;P2;SDS_P1;SDS_P2;PMS_P1;PMS_P2;Temp;Humidity;BMP_temperature;BMP_pressure;BME280_temperature;BME280_humidity;BME280_pressure;Samples;Min_cycle;Max_cycle;Signal;HPM_P1;HPM_P2
2022/08/13 00:01:38;;;;;;;3.90;3.30;;;23.20;78.50;;;;;;5030303;28;20102;-57
2022/08/13 00:04:09;;;;;;;5.47;4.03;;;23.20;78.60;;;;;;5032021;28;20029;-58
2022/08/13 00:09:12;;;;;;;4.88;3.63;;;23.10;78.60;;;;;;5022695;28;20400;-58
2022/08/13 00:14:27;;;;;;;4.80;3.90;;;23.10;78.90;;;;;;5018310;28;20075;-58
2022/08/13 00:16:55;;;;;;;5.40;3.95;;;23.10;79.00;;;;;;5033207;28;20030;-57
2022/08/13 00:19:26;;;;;;;5.43;3.83;;;23.10;78.80;;;;;;5032340;28;20022;-57
2022/08/13 00:21:52;;;;;;;;;;;23.10;78.90;;;;;;5032314;28;20026;-57
2022/08/13 00:24:18;;;;;;;4.20;3.50;;;23.10;79.10;;;;;;5031915;28;19909;-57
2022/08/13 00:26:44;;;;;;;6.05;4.00;;;23.10;79.10;;;;;;5031518;28;20053;-57
2022/08/13 00:29:10;;;;;;;4.28;3.28;;;23.10;78.90;;;;;;5028931;28;20492;-57
2022/08/13 00:31:37;;;;;;;4.40;3.72;;;23.10;79.20;;;;;;5026411;28;20025;-57
2022/08/13 00:34:03;;;;;;;7.18;4.30;;;23.10;79.00;;;;;;5026129;28;20037;-57
2022/08/13 00:36:31;;;;;;;4.90;3.40;;;23.10;79.00;;;;;;5032486;28;20034;-57
2022/08/13 00:38:57;;;;;;;3.85;3.45;;;23.10;79.00;;;;;;5032332;28;20022;-57
2022/08/13 00:41:38;;;;;;;4.72;3.42;;;23.10;79.00;;;;;;5032589;28;20030;-57
2022/08/13 00:44:09;;;;;;;4.88;3.67;;;23.10;79.20;;;;;;5031967;28;20028;-59
2022/08/13 00:46:37;;;;;;;4.88;3.55;;;23.10;79.00;;;;;;5019680;28;20041;-58
2022/08/13 00:49:03;;;;;;;4.63;3.45;;;23.10;79.10;;;;;;5030382;28;20029;-57
2022/08/13 00:51:31;;;;;;;4.32;3.70;;;23.10;79.40;;;;;;5032484;28;20096;-57
2022/08/13 00:53:59;;;;;;;4.38;3.30;;;23.10;79.40;;;;;;5032049;28;20096;-58
2022/08/13 00:56:26;;;;;;;4.93;3.95;;;23.10;79.50;;;;;;5027850;28;20140;-57
2022/08/13 00:58:52;;;;;;;4.88;3.42;;;23.10;79.50;;;;;;5026754;28;20112;-57
2022/08/13 01:01:23;;;;;;;5.68;3.95;;;23.10;79.60;;;;;;5031390;28;20048;-57
2022/08/13 01:03:50;;;;;;;5.55;3.70;;;23.10;79.50;;;;;;5030205;28;20037;-57
2022/08/13 01:06:16;;;;;;;5.18;3.50;;;23.10;79.30;;;;;;5026113;28;20540;-57
2022/08/13 01:08:41;;;;;;;5.70;4.05;;;23.10;79.60;;;;;;5025691;28;20049;-58
2022/08/13 01:11:11;;;;;;;5.95;4.55;;;23.10;79.50;;;;;;5032401;28;20030;-57
2022/08/13 01:13:40;;;;;;;5.40;3.67;;;23.10;79.50;;;;;;5030294;28;20033;-57
2022/08/13 01:16:13;;;;;;;4.72;4.00;;;23.10;79.60;;;;;;5031303;28;20047;-56
2022/08/13 01:18:45;;;;;;;4.60;3.88;;;23.10;79.70;;;;;;5028134;28;20018;-57
2022/08/13 01:21:15;;;;;;;5.03;4.00;;;23.10;79.80;;;;;;5028841;28;20480;-58
2022/08/13 01:23:44;;;;;;;4.78;3.72;;;23.10;80.00;;;;;;5023273;28;20029;-58
2022/08/13 01:26:12;;;;;;;5.40;3.83;;;23.10;80.00;;;;;;5041055;28;20041;-57
2022/08/13 01:28:39;;;;;;;4.20;3.20;;;23.10;80.20;;;;;;5033514;28;20052;-57
2022/08/13 01:31:06;;;;;;;5.82;3.78;;;23.00;79.90;;;;;;5031870;28;20393;-57
2022/08/13 01:33:35;;;;;;;5.35;4.10;;;23.10;80.20;;;;;;5027822;28;20453;-57
2022/08/13 01:36:03;;;;;;;6.35;4.20;;;23.00;80.00;;;;;;5030467;28;20472;-57
2022/08/13 01:38:30;;;;;;;4.55;3.97;;;23.00;80.10;;;;;;5019976;28;20495;-57
2022/08/13 01:40:56;;;;;;;5.78;4.25;;;23.00;80.40;;;;;;5029805;28;20469;-57
2022/08/13 01:43:22;;;;;;;6.50;4.10;;;22.90;80.50;;;;;;5030765;28;20022;-57
2022/08/13 01:45:49;;;;;;;5.50;3.90;;;22.90;80.70;;;;;;5031194;28;20080;-58
2022/08/13 01:51:00;;;;;;;5.07;3.60;;;22.90;81.20;;;;;;5031739;28;20076;-57
2022/08/13 01:53:26;;;;;;;5.25;3.53;;;22.90;81.60;;;;;;5021944;28;20069;-57
2022/08/13 01:55:55;;;;;;;5.00;3.83;;;22.90;81.60;;;;;;5029473;28;20017;-58
2022/08/13 01:58:25;;;;;;;4.47;3.60;;;22.90;81.70;;;;;;5031514;28;20500;-57
2022/08/13 02:00:57;;;;;;;5.10;3.78;;;22.80;81.90;;;;;;5034379;28;20017;-57
2022/08/13 02:03:24;;;;;;;4.90;3.97;;;22.90;81.90;;;;;;5031215;28;20033;-56
2022/08/13 02:05:50;;;;;;;4.90;3.58;;;22.90;81.90;;;;;;5034992;28;20482;-57
2022/08/13 02:08:22;;;;;;;5.28;3.90;;;22.80;81.90;;;;;;5032160;28;20120;-57
2022/08/13 02:10:50;;;;;;;4.82;3.90;;;22.80;81.80;;;;;;5034065;28;20036;-58
2022/08/13 02:13:22;;;;;;;5.97;3.60;;;22.80;82.00;;;;;;5029322;28;20030;-58
2022/08/13 02:15:49;;;;;;;6.30;4.10;;;22.80;82.10;;;;;;5031846;28;20115;-56
2022/08/13 02:18:18;;;;;;;5.60;4.60;;;22.80;82.20;;;;;;5031207;28;20025;-57
2022/08/13 02:20:45;;;;;;;5.32;3.97;;;22.80;82.20;;;;;;5034672;28;20416;-57
2022/08/13 02:23:19;;;;;;;5.93;4.78;;;22.80;82.10;;;;;;5025756;28;20034;-57
2022/08/13 02:25:46;;;;;;;6.20;4.82;;;22.80;82.10;;;;;;5034619;28;20051;-57
2022/08/13 02:28:14;;;;;;;6.95;5.15;;;22.70;82.20;;;;;;5038244;28;20037;-58
2022/08/13 02:30:41;;;;;;;5.40;4.13;;;22.70;82.30;;;;;;5034549;28;20076;-57
2022/08/13 02:33:08;;;;;;;4.97;4.15;;;22.70;82.30;;;;;;5030260;28;20084;-57
2022/08/13 02:35:36;;;;;;;5.47;4.43;;;22.70;82.50;;;;;;5034098;28;20064;-58
2022/08/13 02:38:03;;;;;;;6.43;4.82;;;22.70;82.70;;;;;;5034621;28;20030;-57
2022/08/13 02:43:13;;;;;;;4.68;3.90;;;22.60;82.80;;;;;;5028947;28;20075;-57
2022/08/13 02:45:39;;;;;;;5.55;4.13;;;22.60;82.90;;;;;;5030595;28;20065;-56
2022/08/13 02:48:05;;;;;;;6.65;4.30;;;22.60;83.10;;;;;;5029388;28;20029;-57
2022/08/13 02:50:42;;;;;;;5.40;4.50;;;22.60;82.90;;;;;;5023071;28;20085;-56
2022/08/13 02:53:13;;;;;;;6.22;4.40;;;22.60;83.00;;;;;;5031943;28;20033;-57
2022/08/13 02:55:41;;;;;;;5.43;4.28;;;22.60;83.10;;;;;;5022909;28;20026;-57
2022/08/13 02:58:07;;;;;;;7.03;4.82;;;22.60;83.10;;;;;;5034729;28;20017;-58
2022/08/13 03:00:35;;;;;;;6.80;4.90;;;22.60;83.10;;;;;;5028752;28;20054;-58
2022/08/13 03:03:01;;;;;;;5.32;4.25;;;22.60;83.10;;;;;;5034039;28;20021;-57
2022/08/13 03:05:30;;;;;;;7.32;4.60;;;22.70;83.20;;;;;;5031828;28;20033;-57
2022/08/13 03:07:56;;;;;;;5.25;3.92;;;22.70;83.40;;;;;;5029443;28;20117;-57
2022/08/13 03:10:25;;;;;;;5.75;4.45;;;22.70;83.20;;;;;;5031304;28;20025;-57
2022/08/13 03:12:58;;;;;;;5.85;4.05;;;22.70;83.00;;;;;;5032350;28;20033;-58
2022/08/13 03:15:26;;;;;;;5.75;4.40;;;22.70;83.20;;;;;;5033119;28;20060;-57
2022/08/13 03:17:52;;;;;;;5.18;4.20;;;22.80;83.20;;;;;;5031659;28;20028;-57
2022/08/13 03:20:17;;;;;;;5.20;3.88;;;22.80;83.10;;;;;;5033198;28;20473;-57
2022/08/13 03:22:57;;;;;;;7.25;4.88;;;22.80;83.10;;;;;;5027296;28;20042;-57
2022/08/13 03:25:29;;;;;;;5.60;4.22;;;22.80;82.80;;;;;;5038195;28;20068;-57
2022/08/13 03:27:58;;;;;;;6.68;4.55;;;22.80;82.80;;;;;;5033891;28;20084;-56
2022/08/13 03:30:26;;;;;;;6.07;4.22;;;22.90;83.00;;;;;;5030500;28;20029;-56
2022/08/13 03:32:52;;;;;;;5.72;4.15;;;22.90;83.00;;;;;;5026579;28;20029;-58
2022/08/13 03:35:24;;;;;;;5.95;3.83;;;22.90;83.10;;;;;;5033715;28;20068;-57
2022/08/13 03:37:55;;;;;;;5.20;4.05;;;23.00;83.10;;;;;;5033710;28;20485;-58
2022/08/13 03:40:23;;;;;;;4.72;3.70;;;23.10;83.00;;;;;;5021359;28;20036;-58
2022/08/13 03:42:50;;;;;;;6.20;4.13;;;23.10;82.90;;;;;;5033753;28;20032;-57
2022/08/13 03:45:17;;;;;;;6.15;4.60;;;23.10;82.90;;;;;;5028006;28;20042;-57
2022/08/13 03:47:43;;;;;;;6.50;4.60;;;23.20;82.60;;;;;;5031963;28;20131;-57
2022/08/13 03:50:10;;;;;;;6.32;4.50;;;23.30;82.50;;;;;;5024366;28;20041;-57
2022/08/13 03:52:37;;;;;;;6.95;4.72;;;23.40;82.30;;;;;;5032202;28;20021;-57
2022/08/13 03:55:21;;;;;;;6.00;4.55;;;23.50;81.90;;;;;;5033436;28;20017;-58
2022/08/13 03:57:48;;;;;;;4.85;3.97;;;23.60;81.40;;;;;;5032057;28;20035;-57
2022/08/13 04:00:14;;;;;;;4.55;4.05;;;23.60;81.50;;;;;;5032004;28;20033;-57
2022/08/13 04:02:40;;;;;;;5.13;3.97;;;23.70;81.80;;;;;;5032646;28;20022;-57
2022/08/13 04:05:13;;;;;;;6.70;4.57;;;23.80;81.90;;;;;;5032319;28;20049;-57
2022/08/13 04:07:39;;;;;;;5.30;4.43;;;24.00;81.30;;;;;;5033595;28;20032;-57
2022/08/13 04:10:06;;;;;;;5.35;4.03;;;24.00;81.00;;;;;;5032345;28;20036;-57
2022/08/13 04:12:34;;;;;;;5.80;4.32;;;24.10;81.10;;;;;;5029643;28;20029;-57
2022/08/13 04:15:01;;;;;;;5.00;3.80;;;24.30;81.10;;;;;;5032138;28;20037;-58
2022/08/13 04:17:26;;;;;;;5.82;4.35;;;24.40;80.50;;;;;;5032703;28;20044;-57
2022/08/13 04:19:52;;;;;;;6.18;4.57;;;24.50;79.90;;;;;;5032626;28;20038;-57
2022/08/13 04:22:20;;;;;;;5.00;4.13;;;24.50;79.40;;;;;;5027176;28;20034;-57
2022/08/13 04:24:46;;;;;;;5.57;4.25;;;24.50;79.00;;;;;;5042121;28;20033;-58
2022/08/13 04:27:11;;;;;;;5.13;3.97;;;24.50;78.90;;;;;;5032877;28;20180;-57
2022/08/13 04:29:37;;;;;;;5.72;4.63;;;24.40;78.80;;;;;;5030901;28;20026;-57
2022/08/13 04:32:03;;;;;;;5.35;4.10;;;24.40;78.60;;;;;;5027177;28;20109;-57
2022/08/13 04:34:29;;;;;;;5.03;4.20;;;24.30;78.90;;;;;;5032517;28;20025;-57
2022/08/13 04:36:56;;;;;;;5.05;4.18;;;24.30;78.90;;;;;;5031201;28;20029;-57
2022/08/13 04:39:22;;;;;;;5.00;3.90;;;24.20;78.90;;;;;;5031720;28;20026;-57
2022/08/13 04:41:48;;;;;;;5.20;4.00;;;24.20;79.00;;;;;;5028910;28;20025;-58
2022/08/13 04:44:13;;;;;;;5.35;3.92;;;24.20;79.10;;;;;;5032503;28;20052;-57
2022/08/13 04:46:39;;;;;;;5.95;4.35;;;24.20;79.00;;;;;;5028347;28;20017;-58
2022/08/13 04:49:06;;;;;;;5.90;4.45;;;24.30;78.90;;;;;;5026409;28;20539;-57
2022/08/13 04:51:35;;;;;;;5.78;4.30;;;24.40;78.90;;;;;;5031682;28;20040;-57
2022/08/13 04:54:01;;;;;;;6.05;4.47;;;24.50;78.50;;;;;;5030601;28;20046;-57
2022/08/13 04:56:27;;;;;;;5.88;4.35;;;24.50;78.80;;;;;;5032287;28;20064;-57
2022/08/13 04:58:53;;;;;;;4.57;4.03;;;24.60;78.00;;;;;;5032648;28;20325;-56
2022/08/13 05:01:21;;;;;;;6.65;4.10;;;24.60;78.00;;;;;;5031123;28;20029;-58
2022/08/13 05:03:46;;;;;;;5.15;4.28;;;24.60;77.80;;;;;;5029516;28;20359;-57
2022/08/13 05:06:17;;;;;;;6.43;4.65;;;24.60;77.60;;;;;;5032232;28;20139;-57
2022/08/13 05:08:43;;;;;;;;;;;24.60;77.50;;;;;;5032966;28;20059;-58
2022/08/13 05:11:12;;;;;;;6.45;4.35;;;24.50;77.60;;;;;;5029733;28;20420;-57
2022/08/13 05:13:40;;;;;;;5.80;4.57;;;24.60;77.70;;;;;;5032201;28;20039;-59
2022/08/13 05:16:08;;;;;;;6.38;4.95;;;24.50;77.40;;;;;;5025020;28;20021;-58
2022/08/13 05:18:37;;;;;;;7.43;5.55;;;24.50;77.50;;;;;;5029110;28;20013;-58
2022/08/13 05:21:05;;;;;;;6.80;5.57;;;24.40;77.30;;;;;;5025593;28;20026;-58
2022/08/13 05:23:34;;;;;;;7.20;5.47;;;24.30;77.40;;;;;;5021164;28;20385;-58
2022/08/13 05:25:59;;;;;;;6.07;4.72;;;24.30;77.60;;;;;;5041690;28;20519;-57
2022/08/13 05:28:26;;;;;;;6.60;4.65;;;24.20;77.90;;;;;;5030303;28;20033;-58
2022/08/13 05:30:52;;;;;;;6.57;4.82;;;24.20;78.00;;;;;;5027591;28;20029;-58
2022/08/13 05:33:23;;;;;;;6.20;4.50;;;24.10;78.00;;;;;;5030577;28;20392;-58
2022/08/13 05:35:49;;;;;;;;;;;24.10;78.10;;;;;;5033600;28;20026;-57
2022/08/13 05:38:20;;;;;;;5.75;3.92;;;24.10;78.20;;;;;;5030915;28;20387;-58
2022/08/13 05:40:46;;;;;;;6.30;4.72;;;24.10;78.10;;;;;;5035386;28;20498;-58
2022/08/13 05:43:15;;;;;;;6.75;5.07;;;24.10;78.10;;;;;;5034618;28;20021;-58
2022/08/13 05:45:49;;;;;;;6.03;4.90;;;24.10;78.30;;;;;;5033406;28;20029;-58
2022/08/13 05:48:15;;;;;;;6.13;4.72;;;24.10;78.10;;;;;;5032008;28;20037;-59
2022/08/13 05:50:42;;;;;;;7.50;5.50;;;24.00;78.20;;;;;;5035045;28;20033;-57
2022/08/13 05:53:10;;;;;;;6.75;4.78;;;24.10;78.40;;;;;;5035892;28;20021;-57
2022/08/13 05:55:37;;;;;;;6.25;4.80;;;24.10;78.50;;;;;;5033437;28;20038;-58
2022/08/13 05:58:05;;;;;;;5.97;4.65;;;24.10;78.40;;;;;;5034367;28;20032;-58
2022/08/13 06:03:25;;;;;;;6.72;4.97;;;24.20;78.40;;;;;;5034962;28;20627;-58
2022/08/13 06:05:55;;;;;;;5.22;3.83;;;24.30;78.40;;;;;;5035732;28;20447;-57
2022/08/13 06:08:30;;;;;;;10.10;4.50;;;24.30;78.30;;;;;;5031464;28;20079;-58
2022/08/13 06:11:01;;;;;;;6.20;4.70;;;24.40;78.40;;;;;;5034439;28;20052;-57
2022/08/13 06:13:28;;;;;;;6.07;4.40;;;24.50;78.50;;;;;;5032979;28;20024;-58
2022/08/13 06:15:58;;;;;;;8.02;5.53;;;24.60;78.60;;;;;;5032687;28;20022;-59
2022/08/13 06:18:30;;;;;;;6.72;4.85;;;24.80;78.60;;;;;;5030411;28;20075;-58
2022/08/13 06:20:58;;;;;;;6.32;4.13;;;24.90;78.50;;;;;;5033144;28;20569;-58
2022/08/13 06:23:25;;;;;;;6.40;4.63;;;25.00;78.10;;;;;;5025512;28;20071;-58
2022/08/13 06:25:52;;;;;;;6.03;4.82;;;25.20;77.60;;;;;;5042746;28;20168;-58
2022/08/13 06:28:23;;;;;;;6.47;5.15;;;25.30;77.00;;;;;;5028653;28;20041;-59
2022/08/13 06:30:50;;;;;;;6.63;5.60;;;25.40;76.80;;;;;;5034266;28;20107;-58
2022/08/13 06:33:21;;;;;;;5.78;4.78;;;25.50;76.70;;;;;;5030816;28;20025;-58
2022/08/13 06:35:49;;;;;;;6.57;4.88;;;25.70;76.60;;;;;;5026262;28;20034;-58
2022/08/13 06:38:17;;;;;;;6.80;4.88;;;25.70;76.40;;;;;;5033466;28;20109;-58
2022/08/13 06:40:45;;;;;;;5.90;4.72;;;25.80;76.10;;;;;;5034232;28;20358;-58
2022/08/13 06:43:14;;;;;;;6.53;5.45;;;25.90;76.00;;;;;;5033673;28;20069;-58
2022/08/13 06:45:42;;;;;;;8.60;5.40;;;26.00;75.40;;;;;;5034818;28;20431;-58
2022/08/13 06:48:09;;;;;;;5.88;4.85;;;26.00;75.20;;;;;;5033739;28;20033;-58
2022/08/13 06:50:35;;;;;;;6.15;4.95;;;26.10;75.20;;;;;;5034199;28;20025;-57
2022/08/13 06:53:06;;;;;;;7.05;5.03;;;26.10;74.90;;;;;;5032988;28;20029;-57
2022/08/13 06:55:36;;;;;;;6.68;4.72;;;26.10;75.50;;;;;;5032972;28;20087;-59
2022/08/13 06:58:03;;;;;;;6.00;4.68;;;26.20;74.80;;;;;;5031758;28;20029;-58
2022/08/13 07:00:30;;;;;;;5.97;4.93;;;26.20;75.00;;;;;;5034334;28;20061;-57
2022/08/13 07:02:56;;;;;;;6.40;5.00;;;26.30;74.90;;;;;;5032927;28;20033;-58
2022/08/13 07:05:38;;;;;;;6.28;4.85;;;26.30;75.00;;;;;;5033981;28;20025;-58
2022/08/13 07:08:07;;;;;;;6.93;5.20;;;26.30;75.30;;;;;;5034474;28;20021;-58
2022/08/13 07:10:34;;;;;;;7.13;4.70;;;26.40;74.60;;;;;;5032700;28;20033;-58
2022/08/13 07:13:02;;;;;;;7.68;5.85;;;26.40;74.50;;;;;;5033683;28;20037;-58
2022/08/13 07:15:29;;;;;;;6.03;4.80;;;26.40;74.50;;;;;;5034206;28;20048;-58
2022/08/13 07:17:56;;;;;;;7.15;4.80;;;26.40;74.40;;;;;;5034110;28;20114;-58
2022/08/13 07:20:24;;;;;;;6.22;5.05;;;26.40;74.40;;;;;;5034537;28;20485;-58
2022/08/13 07:22:52;;;;;;;6.13;4.70;;;26.40;74.40;;;;;;5033582;28;20542;-58
2022/08/13 07:25:22;;;;;;;6.10;4.40;;;26.40;74.40;;;;;;5033309;28;20033;-58
2022/08/13 07:27:50;;;;;;;5.38;4.20;;;26.50;74.20;;;;;;5032649;28;20041;-58
2022/08/13 07:30:16;;;;;;;8.55;5.00;;;26.50;74.20;;;;;;5017566;28;20022;-57
2022/08/13 07:32:42;;;;;;;7.05;5.43;;;26.50;74.20;;;;;;5030705;28;20379;-57
2022/08/13 07:35:09;;;;;;;7.28;5.45;;;26.50;74.20;;;;;;5033804;28;20416;-58
2022/08/13 07:37:36;;;;;;;8.38;5.65;;;26.50;74.20;;;;;;5034123;28;20029;-58
2022/08/13 07:40:09;;;;;;;6.63;4.80;;;26.60;74.20;;;;;;5033764;28;20028;-58
2022/08/13 07:42:39;;;;;;;6.45;4.93;;;26.60;74.20;;;;;;5031794;28;20032;-58
2022/08/13 07:45:06;;;;;;;5.80;4.43;;;26.60;75.00;;;;;;5027079;28;20257;-58
2022/08/13 07:47:33;;;;;;;6.78;5.38;;;26.60;74.20;;;;;;5028591;28;20030;-58
2022/08/13 07:50:01;;;;;;;6.45;4.72;;;26.60;74.30;;;;;;5027163;28;20033;-59
2022/08/13 07:52:30;;;;;;;7.03;5.70;;;26.70;74.50;;;;;;5029264;28;20056;-58
2022/08/13 07:54:58;;;;;;;6.40;5.43;;;26.70;74.30;;;;;;5032218;28;20037;-57
2022/08/13 07:57:27;;;;;;;7.03;5.35;;;26.70;74.30;;;;;;5032975;28;20025;-57
2022/08/13 07:59:54;;;;;;;7.05;5.25;;;26.70;74.20;;;;;;5029962;28;20358;-57
2022/08/13 08:02:20;;;;;;;7.07;5.13;;;26.70;74.00;;;;;;5032516;28;20052;-58
2022/08/13 08:04:48;;;;;;;7.88;6.00;;;26.70;73.90;;;;;;5033642;28;20025;-57
2022/08/13 08:07:14;;;;;;;8.50;4.75;;;26.70;73.90;;;;;;5027852;28;20041;-58
2022/08/13 08:09:40;;;;;;;6.88;5.00;;;26.80;74.20;;;;;;5032751;28;20041;-57
2022/08/13 08:14:50;;;;;;;5.68;4.35;;;26.90;74.20;;;;;;5028216;28;20044;-57
2022/08/13 08:17:17;;;;;;;6.85;5.60;;;26.90;74.20;;;;;;5027362;28;20049;-58
2022/08/13 08:19:46;;;;;;;8.38;5.90;;;26.90;74.00;;;;;;5031689;28;20022;-57
2022/08/13 08:22:13;;;;;;;7.53;5.70;;;27.10;74.50;;;;;;5030075;28;20029;-58
2022/08/13 08:24:39;;;;;;;6.32;5.13;;;27.10;73.50;;;;;;5030575;28;20029;-57
2022/08/13 08:27:09;;;;;;;9.25;5.75;;;27.10;73.40;;;;;;5032350;28;20045;-58
2022/08/13 08:29:38;;;;;;;7.50;4.88;;;27.20;73.20;;;;;;5030550;28;20088;-59
2022/08/13 08:32:08;;;;;;;6.65;5.10;;;27.10;73.30;;;;;;5030157;28;20414;-57
2022/08/13 08:34:36;;;;;;;5.18;4.20;;;27.10;73.20;;;;;;5029693;28;20056;-58
2022/08/13 08:37:02;;;;;;;8.38;4.97;;;27.10;73.10;;;;;;5040069;28;20033;-57
2022/08/13 08:45:01;;;;;;;6.53;5.13;;;27.00;73.30;;;;;;5031601;28;20448;-57
2022/08/13 08:47:35;;;;;;;7.43;5.32;;;26.90;73.50;;;;;;5031775;28;20064;-58
2022/08/13 08:50:02;;;;;;;6.13;5.13;;;26.90;73.80;;;;;;5031300;28;20034;-57
2022/08/13 08:55:15;;;;;;;7.40;5.45;;;26.80;74.00;;;;;;5031910;28;20553;-57
2022/08/13 08:57:41;;;;;;;7.28;5.47;;;26.90;74.20;;;;;;5030468;28;20045;-58
2022/08/13 09:00:14;;;;;;;7.93;5.85;;;26.80;74.10;;;;;;5032054;28;20032;-57
2022/08/13 09:02:40;;;;;;;7.15;5.55;;;26.90;74.20;;;;;;5032267;28;20018;-57
2022/08/13 09:05:12;;;;;;;7.60;5.90;;;26.90;74.40;;;;;;5029067;28;20389;-57
2022/08/13 09:07:39;;;;;;;6.55;5.40;;;27.00;74.30;;;;;;5024731;28;20061;-57
2022/08/13 09:10:05;;;;;;;8.02;5.50;;;27.00;74.20;;;;;;5028383;28;20408;-58
2022/08/13 09:12:32;;;;;;;6.65;4.68;;;27.10;74.20;;;;;;5028876;28;20036;-58
2022/08/13 09:14:58;;;;;;;5.38;4.45;;;27.20;74.30;;;;;;5027051;28;20108;-57
2022/08/13 09:17:26;;;;;;;6.60;4.93;;;27.20;74.20;;;;;;5030120;28;20037;-57
2022/08/13 09:19:52;;;;;;;6.93;5.40;;;27.30;74.10;;;;;;5015671;28;20038;-58
2022/08/13 09:22:23;;;;;;;6.78;5.32;;;27.30;73.90;;;;;;5020452;28;20358;-59
2022/08/13 09:24:52;;;;;;;5.55;4.70;;;27.30;73.70;;;;;;5023426;28;20022;-58
2022/08/13 09:27:18;;;;;;;6.30;5.40;;;27.30;73.30;;;;;;5019071;28;20034;-58
2022/08/13 09:29:45;;;;;;;9.38;5.85;;;27.30;73.10;;;;;;5022269;28;20079;-58
2022/08/13 09:32:14;;;;;;;7.07;5.32;;;27.30;72.90;;;;;;5021253;28;20404;-57
2022/08/13 09:34:44;;;;;;;6.53;5.20;;;27.30;72.80;;;;;;5022424;28;20029;-58
2022/08/13 09:37:10;;;;;;;7.63;5.82;;;27.20;72.70;;;;;;5018939;28;20025;-59
2022/08/13 09:40:01;;;;;;;7.10;6.00;;;27.20;72.60;;;;;;5017162;28;20029;-57
2022/08/13 09:42:32;;;;;;;7.65;6.35;;;27.20;72.40;;;;;;5013176;28;20145;-57
2022/08/13 09:45:01;;;;;;;8.75;6.40;;;27.20;72.10;;;;;;5021233;28;20037;-58
2022/08/13 09:47:28;;;;;;;6.13;4.85;;;27.20;71.70;;;;;;5027785;28;20036;-58
2022/08/13 09:49:55;;;;;;;6.88;5.13;;;27.10;71.70;;;;;;5029794;28;20034;-57
2022/08/13 09:52:21;;;;;;;7.10;5.32;;;27.10;71.80;;;;;;5032075;28;20104;-57
2022/08/13 09:54:48;;;;;;;6.95;5.25;;;27.20;71.80;;;;;;5030237;28;20038;-57
2022/08/13 09:57:14;;;;;;;6.75;5.57;;;27.20;71.60;;;;;;5031552;28;20022;-58
2022/08/13 09:59:39;;;;;;;5.95;4.93;;;27.20;71.70;;;;;;5030920;28;20096;-58
2022/08/13 10:02:09;;;;;;;8.38;5.60;;;27.20;71.60;;;;;;5028725;28;20057;-58
2022/08/13 10:04:37;;;;;;;5.75;4.80;;;27.20;71.70;;;;;;5024628;28;20108;-59
2022/08/13 10:07:04;;;;;;;6.47;5.47;;;27.20;72.00;;;;;;5025803;28;20491;-59
2022/08/13 10:09:32;;;;;;;7.53;5.13;;;27.30;72.10;;;;;;5021789;28;20052;-57
2022/08/13 10:11:59;;;;;;;6.60;5.35;;;27.30;72.10;;;;;;5019754;28;20113;-57
2022/08/13 10:14:25;;;;;;;6.32;4.95;;;27.40;72.10;;;;;;5028064;28;20496;-58
2022/08/13 10:16:52;;;;;;;6.88;4.97;;;27.40;72.10;;;;;;5029017;28;20111;-58
2022/08/13 10:19:17;;;;;;;8.18;5.25;;;27.50;72.10;;;;;;5026408;28;20028;-57
2022/08/13 10:25:08;;;;;;;6.45;4.82;;;27.60;71.70;;;;;;5058529;22;20168;-95
2022/08/13 10:27:35;;;;;;;6.50;5.30;;;27.50;71.60;;;;;;5041540;23;20037;-59
2022/08/13 10:30:05;;;;;;;7.63;5.47;;;27.60;71.80;;;;;;5050450;28;20120;-59
2022/08/13 10:32:30;;;;;;;5.93;5.00;;;27.60;71.80;;;;;;5056782;28;20029;-59
2022/08/13 10:34:56;;;;;;;5.72;4.68;;;27.70;72.00;;;;;;5050911;28;20044;-59
2022/08/13 10:37:22;;;;;;;5.80;4.57;;;27.80;71.90;;;;;;5054922;28;20048;-59
2022/08/13 10:39:47;;;;;;;6.50;5.30;;;27.80;71.80;;;;;;5052188;28;20033;-59
2022/08/13 10:42:13;;;;;;;5.82;4.70;;;27.80;71.70;;;;;;5052918;28;20021;-60
2022/08/13 10:44:40;;;;;;;7.65;5.00;;;27.90;71.80;;;;;;5051197;28;20028;-59
2022/08/13 10:47:06;;;;;;;5.70;4.72;;;27.90;71.70;;;;;;5054763;28;20028;-59
2022/08/13 10:49:33;;;;;;;6.45;4.75;;;27.90;71.60;;;;;;5054050;28;20464;-60
2022/08/13 10:51:59;;;;;;;6.93;4.85;;;27.90;71.60;;;;;;5053275;28;20471;-59
2022/08/13 10:54:25;;;;;;;8.25;5.95;;;27.90;71.50;;;;;;5049967;28;20017;-59
2022/08/13 10:56:51;;;;;;;7.57;5.50;;;27.90;71.40;;;;;;5052448;28;20036;-60
2022/08/13 10:59:16;;;;;;;6.10;4.70;;;27.90;71.40;;;;;;5052079;28;20039;-59
2022/08/13 11:01:42;;;;;;;5.50;4.40;;;27.90;71.40;;;;;;5054730;28;20031;-59
2022/08/13 11:04:09;;;;;;;7.05;5.43;;;27.90;71.40;;;;;;5053998;28;20092;-59
2022/08/13 11:06:36;;;;;;;6.80;5.38;;;27.80;71.30;;;;;;5054744;28;20078;-59
2022/08/13 11:09:05;;;;;;;6.63;4.78;;;27.80;71.20;;;;;;5045565;28;20028;-59
2022/08/13 11:11:32;;;;;;;6.65;4.80;;;27.80;71.20;;;;;;5054032;28;20033;-59
2022/08/13 11:13:58;;;;;;;6.18;5.22;;;27.80;71.20;;;;;;5051842;28;20025;-59
2022/08/13 11:18:59;;;;;;;6.93;5.28;;;27.70;71.10;;;;;;5053100;28;20071;-59
2022/08/13 11:21:26;;;;;;;6.45;5.07;;;27.70;71.00;;;;;;5051865;28;20112;-59
2022/08/13 11:23:53;;;;;;;7.50;5.20;;;27.70;71.00;;;;;;5052347;28;20028;-59
2022/08/13 11:26:19;;;;;;;6.88;5.18;;;27.60;70.80;;;;;;5055676;28;20479;-59
2022/08/13 11:28:45;;;;;;;8.20;5.68;;;27.60;70.80;;;;;;5031548;28;20416;-59
2022/08/13 11:31:11;;;;;;;7.07;5.55;;;27.50;70.90;;;;;;5032676;28;20018;-59
2022/08/13 11:33:36;;;;;;;7.72;5.68;;;27.50;70.80;;;;;;5034580;28;20034;-59
2022/08/13 11:36:02;;;;;;;8.88;5.47;;;27.50;70.80;;;;;;5033429;28;20033;-59
2022/08/13 11:38:28;;;;;;;7.75;5.43;;;27.50;70.80;;;;;;5028531;28;20030;-59
2022/08/13 11:40:57;;;;;;;9.73;5.35;;;27.40;70.70;;;;;;5033556;28;20033;-59
2022/08/13 11:43:27;;;;;;;7.47;5.18;;;27.40;70.60;;;;;;5021471;28;20036;-59
2022/08/13 11:45:53;;;;;;;6.35;5.53;;;27.40;70.60;;;;;;5037920;28;20029;-59
2022/08/13 11:48:20;;;;;;;6.45;5.45;;;27.40;70.60;;;;;;5030435;28;20109;-59
2022/08/13 11:50:49;;;;;;;7.55;5.45;;;27.40;70.80;;;;;;5029720;28;20041;-59
2022/08/13 11:53:16;;;;;;;7.28;5.25;;;27.40;70.90;;;;;;5039031;28;20108;-59
2022/08/13 11:55:41;;;;;;;8.40;5.90;;;27.40;70.90;;;;;;5027643;28;20040;-58
2022/08/13 11:58:08;;;;;;;6.97;5.50;;;27.40;71.00;;;;;;5028657;28;20453;-59
2022/08/13 12:00:36;;;;;;;7.22;6.00;;;27.40;71.00;;;;;;5027977;28;20025;-57
2022/08/13 12:03:03;;;;;;;7.18;5.47;;;27.40;71.00;;;;;;5023392;28;20108;-61
2022/08/13 12:05:28;;;;;;;7.18;5.47;;;27.50;71.00;;;;;;5030532;28;20462;-58
2022/08/13 12:07:54;;;;;;;8.48;5.68;;;27.50;70.90;;;;;;5030359;28;20053;-59
2022/08/13 12:10:20;;;;;;;7.07;5.40;;;27.50;70.80;;;;;;5031606;28;20057;-58
2022/08/13 12:12:46;;;;;;;6.60;5.13;;;27.50;70.70;;;;;;5030182;28;20061;-59
2022/08/13 12:15:13;;;;;;;8.32;5.97;;;27.50;70.90;;;;;;5029844;28;20033;-59
2022/08/13 12:17:43;;;;;;;6.70;4.63;;;27.60;70.80;;;;;;5036908;28;20051;-59
2022/08/13 12:20:19;;;;;;;8.15;5.80;;;27.60;70.80;;;;;;5035439;28;20029;-59
2022/08/13 12:22:45;;;;;;;7.85;6.00;;;27.60;70.70;;;;;;5036879;28;20168;-58
2022/08/13 12:25:11;;;;;;;7.53;5.45;;;27.60;70.80;;;;;;5019104;28;20456;-58
2022/08/13 12:27:39;;;;;;;6.70;5.15;;;27.60;70.80;;;;;;5029473;28;20118;-59
2022/08/13 12:30:06;;;;;;;8.00;5.78;;;27.60;70.80;;;;;;5029099;28;20102;-61
2022/08/13 12:32:31;;;;;;;9.43;5.60;;;27.60;70.70;;;;;;5022258;28;20037;-58
2022/08/13 12:34:57;;;;;;;7.60;5.80;;;27.60;70.70;;;;;;5019274;28;20092;-59
2022/08/13 12:37:23;;;;;;;6.63;5.75;;;27.60;70.80;;;;;;5021758;28;20068;-59
2022/08/13 12:39:54;;;;;;;8.25;6.05;;;27.60;70.50;;;;;;5027556;28;20112;-59
2022/08/13 12:42:20;;;;;;;8.13;6.00;;;27.60;70.50;;;;;;5021393;28;20362;-59
2022/08/13 12:44:45;;;;;;;7.95;6.05;;;27.50;70.50;;;;;;5034273;28;20040;-58
2022/08/13 12:47:11;;;;;;;7.25;5.70;;;27.50;70.50;;;;;;5028215;28;20026;-59
2022/08/13 12:49:36;;;;;;;7.32;5.95;;;27.50;70.30;;;;;;5029562;28;20488;-58
2022/08/13 12:52:03;;;;;;;7.65;5.50;;;27.50;70.20;;;;;;5028622;28;20552;-58
2022/08/13 12:54:29;;;;;;;8.00;6.15;;;27.50;70.40;;;;;;5032047;28;20058;-58
2022/08/13 12:56:54;;;;;;;6.18;5.03;;;27.40;70.10;;;;;;5027274;28;20065;-59
2022/08/13 12:59:20;;;;;;;7.70;5.50;;;27.40;70.20;;;;;;5032081;28;20083;-58
2022/08/13 13:01:52;;;;;;;7.05;5.28;;;27.40;70.10;;;;;;5027424;28;20067;-59
2022/08/13 13:04:24;;;;;;;6.40;5.25;;;27.40;70.20;;;;;;5034499;28;20384;-58
2022/08/13 13:06:51;;;;;;;6.85;5.88;;;27.40;70.30;;;;;;5025892;28;20053;-58
2022/08/13 13:09:16;;;;;;;7.68;5.97;;;27.30;70.30;;;;;;5025513;28;20025;-58
2022/08/13 13:11:42;;;;;;;6.45;5.32;;;27.30;70.40;;;;;;5020267;28;20108;-58
2022/08/13 13:14:09;;;;;;;7.85;6.15;;;27.30;70.30;;;;;;5022486;28;22068;-57
2022/08/13 13:16:35;;;;;;;8.73;5.88;;;27.30;70.20;;;;;;5035978;28;20029;-58
2022/08/13 13:19:02;;;;;;;6.70;5.30;;;27.30;70.20;;;;;;5024712;28;20021;-58
2022/08/13 13:21:31;;;;;;;7.07;5.32;;;27.20;70.10;;;;;;5028916;28;20029;-58